createdAt,value
2023-02-19T00:02:15.672Z,15.41
2023-02-19T00:04:42.544Z,15.63
2023-02-19T00:07:09.411Z,15.57
2023-02-19T00:09:36.276Z,15.49
2023-02-19T00:12:03.155Z,15.53
2023-02-19T00:14:30.041Z,15.43
2023-02-19T00:16:56.846Z,15.53
2023-02-19T00:19:24.288Z,15.34
2023-02-19T00:21:52.846Z,15.43
2023-02-19T00:24:20.506Z,15.29
2023-02-19T00:26:48.213Z,15.18
2023-02-19T00:29:19.873Z,15.28
2023-02-19T00:31:47.383Z,15.42
2023-02-19T00:34:14.953Z,14.91
2023-02-19T00:36:42.999Z,14.66
2023-02-19T00:39:15.571Z,15.00
2023-02-19T00:41:43.198Z,14.57
2023-02-19T00:44:12.104Z,14.95
2023-02-19T00:46:45.999Z,15.03
2023-02-19T00:49:22.949Z,14.93
2023-02-19T00:51:52.347Z,15.08
2023-02-19T00:54:22.356Z,14.74
2023-02-19T00:56:49.637Z,15.22
2023-02-19T00:59:16.738Z,14.87
2023-02-19T01:01:44.991Z,15.02
2023-02-19T01:04:12.080Z,14.85
2023-02-19T01:06:38.875Z,14.64
2023-02-19T01:09:07.775Z,14.97
2023-02-19T01:11:35.309Z,14.76
2023-02-19T01:14:03.437Z,14.73
2023-02-19T01:16:31.014Z,14.77
2023-02-19T01:19:00.045Z,15.07
2023-02-19T01:21:29.627Z,15.07
2023-02-19T01:23:58.861Z,15.22
2023-02-19T01:26:30.125Z,15.18
2023-02-19T01:28:58.489Z,14.63
2023-02-19T01:31:26.228Z,14.95
2023-02-19T01:34:00.496Z,14.87
2023-02-19T01:36:29.338Z,14.81
2023-02-19T01:38:56.279Z,14.92
2023-02-19T01:41:25.740Z,15.14
2023-02-19T01:44:27.567Z,14.98
2023-02-19T01:46:57.530Z,14.79
2023-02-19T01:49:53.074Z,15.04
2023-02-19T01:52:32.687Z,14.94
2023-02-19T01:55:01.816Z,14.85
2023-02-19T01:57:34.862Z,14.62
2023-02-19T02:00:12.930Z,15.01
2023-02-19T02:02:42.572Z,14.79
2023-02-19T02:05:20.168Z,14.83
2023-02-19T02:08:05.452Z,15.09
2023-02-19T02:10:32.251Z,14.64
2023-02-19T02:12:59.370Z,14.66
2023-02-19T02:15:55.947Z,14.33
2023-02-19T02:18:54.481Z,14.77
2023-02-19T02:21:49.260Z,14.76
2023-02-19T02:24:53.021Z,14.84
2023-02-19T02:27:43.263Z,14.99
2023-02-19T02:30:31.596Z,14.77
2023-02-19T02:33:22.049Z,14.73
2023-02-19T02:35:56.655Z,14.54
2023-02-19T02:38:29.340Z,14.81
2023-02-19T02:40:56.947Z,15.07
2023-02-19T02:43:24.194Z,14.83
2023-02-19T02:45:51.138Z,14.98
2023-02-19T02:48:32.558Z,14.83
2023-02-19T02:51:23.450Z,14.79
2023-02-19T02:54:12.340Z,14.78
2023-02-19T02:56:41.330Z,14.63
2023-02-19T02:59:11.409Z,14.56
2023-02-19T03:02:02.361Z,14.76
2023-02-19T03:04:37.756Z,14.33
2023-02-19T03:07:08.856Z,14.87
2023-02-19T03:09:43.155Z,14.80
2023-02-19T03:12:34.314Z,14.97
2023-02-19T03:15:25.997Z,15.00
2023-02-19T03:18:17.748Z,15.22
2023-02-19T03:20:50.329Z,15.03
2023-02-19T03:23:19.445Z,15.08
2023-02-19T03:26:05.655Z,14.49
2023-02-19T03:28:56.889Z,14.62
2023-02-19T03:31:27.058Z,14.50
2023-02-19T03:34:00.610Z,14.52
2023-02-19T03:36:36.982Z,14.27
2023-02-19T03:39:07.723Z,14.60
2023-02-19T03:41:48.696Z,14.38
2023-02-19T03:44:40.384Z,14.11
2023-02-19T03:47:39.968Z,14.38
2023-02-19T03:50:30.184Z,14.17
2023-02-19T03:53:28.458Z,14.12
2023-02-19T03:56:18.339Z,14.21
2023-02-19T03:59:05.823Z,14.13
2023-02-19T04:01:42.671Z,13.67
2023-02-19T04:04:34.134Z,14.16
2023-02-19T04:07:01.146Z,14.50
2023-02-19T04:09:37.043Z,13.86
2023-02-19T04:12:05.334Z,14.21
2023-02-19T04:14:45.574Z,14.25
2023-02-19T04:17:29.940Z,13.96
2023-02-19T04:19:58.908Z,13.94
2023-02-19T04:22:26.572Z,14.05
2023-02-19T04:24:55.555Z,13.79
2023-02-19T04:27:22.434Z,14.06
2023-02-19T04:29:49.315Z,14.20
2023-02-19T04:32:16.138Z,13.96
2023-02-19T04:34:42.929Z,14.00
2023-02-19T04:37:09.916Z,13.85
2023-02-19T04:39:36.775Z,13.45
2023-02-19T04:42:04.118Z,13.40
2023-02-19T04:44:30.915Z,13.77
2023-02-19T04:46:57.733Z,13.58
2023-02-19T04:49:24.563Z,13.33
2023-02-19T04:51:51.325Z,13.80
2023-02-19T04:54:18.130Z,13.99
2023-02-19T04:56:44.924Z,13.42
2023-02-19T04:59:12.549Z,13.48
2023-02-19T05:01:39.387Z,13.84
2023-02-19T05:04:06.197Z,13.93
2023-02-19T05:06:33.130Z,13.47
2023-02-19T05:08:59.912Z,13.68
2023-02-19T05:11:27.047Z,13.79
2023-02-19T05:13:56.017Z,13.59
2023-02-19T05:16:22.951Z,13.71
2023-02-19T05:18:49.740Z,13.52
2023-02-19T05:21:16.992Z,13.68
2023-02-19T05:23:44.152Z,13.55
2023-02-19T05:26:22.483Z,13.44
2023-02-19T05:28:53.866Z,13.23
2023-02-19T05:31:21.515Z,13.58
2023-02-19T05:33:51.217Z,13.19
2023-02-19T05:36:21.344Z,13.56
2023-02-19T05:38:52.641Z,13.22
2023-02-19T05:41:23.421Z,13.24
2023-02-19T05:43:50.554Z,12.78
2023-02-19T05:46:21.371Z,13.25
2023-02-19T05:48:49.559Z,13.42
2023-02-19T05:51:20.236Z,13.37
2023-02-19T05:53:47.233Z,13.45
2023-02-19T05:56:30.998Z,13.71
2023-02-19T05:58:58.397Z,13.38
2023-02-19T06:01:28.398Z,12.92
2023-02-19T06:03:57.490Z,13.37
2023-02-19T06:06:25.828Z,13.36
2023-02-19T06:08:53.213Z,13.58
2023-02-19T06:11:20.478Z,13.30
2023-02-19T06:13:47.542Z,13.32
2023-02-19T06:16:14.410Z,13.17
2023-02-19T06:18:41.300Z,13.26
2023-02-19T06:21:11.154Z,13.22
2023-02-19T06:23:39.162Z,13.04
2023-02-19T06:26:12.316Z,13.02
2023-02-19T06:28:40.472Z,13.32
2023-02-19T06:31:09.344Z,13.13
2023-02-19T06:33:40.432Z,13.65
2023-02-19T06:36:11.949Z,13.13
2023-02-19T06:38:38.891Z,13.22
2023-02-19T06:41:07.269Z,13.44
2023-02-19T06:43:34.789Z,13.03
2023-02-19T06:46:04.530Z,13.20
2023-02-19T06:48:32.548Z,13.60
2023-02-19T06:50:59.880Z,13.67
2023-02-19T06:53:27.511Z,13.65
2023-02-19T06:56:04.719Z,13.28
2023-02-19T06:58:32.634Z,13.19
2023-02-19T07:00:59.899Z,13.39
2023-02-19T07:03:26.842Z,13.10
2023-02-19T07:05:53.966Z,12.66
2023-02-19T07:08:20.876Z,13.07
2023-02-19T07:10:56.445Z,13.13
2023-02-19T07:13:25.278Z,13.64
2023-02-19T07:15:52.684Z,13.35
2023-02-19T07:18:19.532Z,12.97
2023-02-19T07:20:46.460Z,13.29
2023-02-19T07:23:13.235Z,13.11
2023-02-19T07:25:40.175Z,13.45
2023-02-19T07:28:07.951Z,13.42
2023-02-19T07:30:34.815Z,13.30
2023-02-19T07:33:01.800Z,13.02
2023-02-19T07:35:28.871Z,13.40
2023-02-19T07:37:55.668Z,13.55
2023-02-19T07:40:22.430Z,12.97
2023-02-19T07:42:49.273Z,13.58
2023-02-19T07:45:16.169Z,13.66
2023-02-19T07:47:43.535Z,13.30
2023-02-19T07:50:12.376Z,13.87
2023-02-19T07:52:40.533Z,13.64
2023-02-19T07:55:07.528Z,13.75
2023-02-19T07:57:34.308Z,13.47
2023-02-19T08:00:01.275Z,13.39
2023-02-19T08:02:46.435Z,13.78
2023-02-19T08:05:14.020Z,12.99
2023-02-19T08:07:41.005Z,12.78
2023-02-19T08:10:26.665Z,13.01
2023-02-19T08:13:17.109Z,12.85
2023-02-19T08:15:47.850Z,12.38
2023-02-19T08:18:16.361Z,12.71
2023-02-19T08:20:43.877Z,12.69
2023-02-19T08:23:12.165Z,13.13
2023-02-19T08:25:40.167Z,13.38
2023-02-19T08:28:09.643Z,13.55
2023-02-19T08:30:38.348Z,13.19
2023-02-19T08:33:07.703Z,13.02
2023-02-19T08:35:36.480Z,12.69
2023-02-19T08:38:05.220Z,13.24
2023-02-19T08:40:33.319Z,13.20
2023-02-19T08:43:13.029Z,13.00
2023-02-19T08:45:43.227Z,12.47
2023-02-19T08:48:11.859Z,12.69
2023-02-19T08:50:39.193Z,12.96
2023-02-19T08:53:07.089Z,13.13
2023-02-19T08:55:34.515Z,13.35
2023-02-19T08:58:01.562Z,13.37
2023-02-19T09:00:28.602Z,13.41
2023-02-19T09:02:57.927Z,13.11
2023-02-19T09:05:24.700Z,12.87
2023-02-19T09:07:51.466Z,12.74
2023-02-19T09:10:18.415Z,12.79
2023-02-19T09:12:45.213Z,12.83
2023-02-19T09:15:11.975Z,13.28
2023-02-19T09:17:38.737Z,13.31
2023-02-19T09:20:05.865Z,13.58
2023-02-19T09:22:32.978Z,13.51
2023-02-19T09:24:59.786Z,13.94
2023-02-19T09:27:26.611Z,14.32
2023-02-19T09:29:54.641Z,14.48
2023-02-19T09:32:21.558Z,14.83
2023-02-19T09:34:49.584Z,14.71
2023-02-19T09:37:16.346Z,14.69
2023-02-19T09:39:43.175Z,14.72
2023-02-19T09:42:16.156Z,15.16
2023-02-19T09:44:48.309Z,14.89
2023-02-19T09:47:22.973Z,15.30
2023-02-19T09:49:54.218Z,15.70
2023-02-19T09:52:59.537Z,16.04
2023-02-19T09:55:34.553Z,16.07
2023-02-19T09:58:14.937Z,16.90
2023-02-19T10:00:41.704Z,16.82
2023-02-19T10:03:17.433Z,16.82
2023-02-19T10:05:44.268Z,16.61
2023-02-19T10:08:18.938Z,16.18
2023-02-19T10:10:45.805Z,15.78
2023-02-19T10:13:30.649Z,15.83
2023-02-19T10:16:01.861Z,15.97
2023-02-19T10:18:42.249Z,16.45
2023-02-19T10:21:17.715Z,17.16
2023-02-19T10:23:45.089Z,17.57
2023-02-19T10:26:11.989Z,16.57
2023-02-19T10:28:38.785Z,16.28
2023-02-19T10:31:20.926Z,15.95
2023-02-19T10:33:54.945Z,16.15
2023-02-19T10:36:41.259Z,16.95
2023-02-19T10:39:23.078Z,16.84
2023-02-19T10:41:51.461Z,16.96
2023-02-19T10:44:27.385Z,16.38
2023-02-19T10:46:57.701Z,16.84
2023-02-19T10:49:41.961Z,16.49
2023-02-19T10:52:27.358Z,16.17
2023-02-19T10:55:14.609Z,16.08
2023-02-19T10:57:41.758Z,16.27
2023-02-19T11:00:26.761Z,15.96
2023-02-19T11:03:21.354Z,16.01
2023-02-19T11:06:02.543Z,16.59
2023-02-19T11:08:30.822Z,15.91
2023-02-19T11:10:58.444Z,16.05
2023-02-19T11:13:32.444Z,17.77
2023-02-19T11:16:00.393Z,18.92
2023-02-19T11:18:31.416Z,18.29
2023-02-19T11:21:01.779Z,18.44
2023-02-19T11:23:45.290Z,18.41
2023-02-19T11:26:23.222Z,19.23
2023-02-19T11:29:19.676Z,19.39
2023-02-19T11:31:46.669Z,18.80
2023-02-19T11:34:21.307Z,18.22
2023-02-19T11:37:15.002Z,17.37
2023-02-19T11:39:45.557Z,15.86
2023-02-19T11:42:49.235Z,15.90
2023-02-19T11:46:07.079Z,15.49
2023-02-19T11:49:15.086Z,15.86
2023-02-19T11:52:01.529Z,15.96
2023-02-19T11:54:51.974Z,15.90
2023-02-19T11:57:39.274Z,16.26
2023-02-19T12:00:30.913Z,16.33
2023-02-19T12:03:44.140Z,16.54
2023-02-19T12:06:32.522Z,16.60
2023-02-19T12:09:33.074Z,16.93
2023-02-19T12:12:37.979Z,17.24
2023-02-19T12:15:29.523Z,17.06
2023-02-19T12:18:23.800Z,15.97
2023-02-19T12:21:40.959Z,15.96
2023-02-19T12:24:44.767Z,16.48
2023-02-19T12:27:37.222Z,18.01
2023-02-19T12:30:29.539Z,17.11
2023-02-19T12:33:27.296Z,16.04
2023-02-19T12:36:00.756Z,15.91
2023-02-19T12:38:45.558Z,16.59
2023-02-19T12:41:42.301Z,17.04
2023-02-19T12:44:44.716Z,17.31
2023-02-19T12:47:24.247Z,16.88
2023-02-19T12:50:21.192Z,17.65
2023-02-19T12:52:54.243Z,18.51
2023-02-19T12:55:33.770Z,18.51
2023-02-19T12:58:05.866Z,17.83
2023-02-19T13:00:50.369Z,17.27
2023-02-19T13:03:27.068Z,17.30
2023-02-19T13:06:21.293Z,17.02
2023-02-19T13:09:08.014Z,17.35
2023-02-19T13:11:44.487Z,16.76
2023-02-19T13:14:26.255Z,16.79
2023-02-19T13:17:01.730Z,16.43
2023-02-19T13:19:30.968Z,15.94
2023-02-19T13:22:40.930Z,16.12
2023-02-19T13:25:10.210Z,15.80
2023-02-19T13:27:52.109Z,15.49
2023-02-19T13:30:57.519Z,15.63
2023-02-19T13:34:25.281Z,15.95
2023-02-19T13:36:53.409Z,15.83
2023-02-19T13:39:21.898Z,16.01
2023-02-19T13:41:58.950Z,16.17
2023-02-19T13:44:32.522Z,15.94
2023-02-19T13:46:59.506Z,16.06
2023-02-19T13:49:41.580Z,16.09
2023-02-19T13:52:29.486Z,16.27
2023-02-19T13:55:46.560Z,16.30
2023-02-19T13:58:42.489Z,16.19
2023-02-19T14:01:11.570Z,16.46
2023-02-19T14:03:56.548Z,16.79
2023-02-19T14:06:23.365Z,16.76
2023-02-19T14:09:00.403Z,17.28
2023-02-19T14:11:42.346Z,17.21
2023-02-19T14:14:24.902Z,16.78
2023-02-19T14:17:01.141Z,16.57
2023-02-19T14:19:48.751Z,17.60
2023-02-19T14:22:53.170Z,17.58
2023-02-19T14:25:34.891Z,17.11
2023-02-19T14:28:09.958Z,15.97
2023-02-19T14:30:58.881Z,16.19
2023-02-19T14:33:40.233Z,15.99
2023-02-19T14:36:50.327Z,16.35
2023-02-19T14:39:19.284Z,15.75
2023-02-19T14:41:57.638Z,15.97
2023-02-19T14:44:30.448Z,15.77
2023-02-19T14:47:07.030Z,15.38
2023-02-19T14:49:46.814Z,15.45
2023-02-19T14:52:17.809Z,14.77
2023-02-19T14:54:59.878Z,14.55
2023-02-19T14:57:45.362Z,13.67
2023-02-19T15:00:37.529Z,13.76
2023-02-19T15:03:05.682Z,13.86
2023-02-19T15:05:38.634Z,14.13
2023-02-19T15:08:16.432Z,14.04
2023-02-19T15:10:44.399Z,14.16
2023-02-19T15:13:17.372Z,14.26
2023-02-19T15:15:46.189Z,14.73
2023-02-19T15:18:24.208Z,14.55
2023-02-19T15:20:59.130Z,14.29
2023-02-19T15:23:30.337Z,15.46
2023-02-19T15:25:57.718Z,16.55
2023-02-19T15:28:24.904Z,18.77
2023-02-19T15:31:15.886Z,20.22
2023-02-19T15:33:50.918Z,19.86
2023-02-19T15:36:32.199Z,18.75
2023-02-19T15:39:02.652Z,16.96
2023-02-19T15:41:34.529Z,17.29
2023-02-19T15:44:30.368Z,15.87
2023-02-19T15:47:02.201Z,15.82
2023-02-19T15:49:42.343Z,15.50
2023-02-19T15:52:26.733Z,15.31
2023-02-19T15:55:48.100Z,14.84
2023-02-19T15:58:38.230Z,15.09
2023-02-19T16:01:13.105Z,14.76
2023-02-19T16:03:40.658Z,14.20
2023-02-19T16:06:16.537Z,14.48
2023-02-19T16:08:47.054Z,14.30
2023-02-19T16:11:22.782Z,14.37
2023-02-19T16:13:51.130Z,14.13
2023-02-19T16:16:35.037Z,14.01
2023-02-19T16:19:02.270Z,13.90
2023-02-19T16:21:29.349Z,13.94
2023-02-19T16:24:14.700Z,13.93
2023-02-19T16:26:43.568Z,13.80
2023-02-19T16:29:22.080Z,13.55
2023-02-19T16:32:16.498Z,13.93
2023-02-19T16:34:48.067Z,13.78
2023-02-19T16:37:35.062Z,13.70
2023-02-19T16:40:07.752Z,13.65
2023-02-19T16:42:55.116Z,13.64
2023-02-19T16:45:21.926Z,13.64
2023-02-19T16:47:50.976Z,13.72
2023-02-19T16:50:24.453Z,13.81
2023-02-19T16:53:03.085Z,13.74
2023-02-19T16:55:32.588Z,13.72
2023-02-19T16:57:59.461Z,13.81
2023-02-19T17:00:29.877Z,13.68
2023-02-19T17:03:09.057Z,13.63
2023-02-19T17:05:37.487Z,13.68
2023-02-19T17:08:38.539Z,13.33
2023-02-19T17:11:12.011Z,13.25
2023-02-19T17:13:39.425Z,13.08
2023-02-19T17:16:06.817Z,13.16
2023-02-19T17:18:33.751Z,13.43
2023-02-19T17:21:17.856Z,13.31
2023-02-19T17:23:45.066Z,13.42
2023-02-19T17:26:21.590Z,13.15
2023-02-19T17:28:48.989Z,13.32
2023-02-19T17:31:16.743Z,13.35
2023-02-19T17:33:44.716Z,13.36
2023-02-19T17:36:27.814Z,13.28
2023-02-19T17:38:54.845Z,13.45
2023-02-19T17:41:21.735Z,13.29
2023-02-19T17:43:50.443Z,13.17
2023-02-19T17:46:20.471Z,13.33
2023-02-19T17:48:47.349Z,13.22
2023-02-19T17:51:14.747Z,13.17
2023-02-19T17:53:42.327Z,13.09
2023-02-19T17:56:09.366Z,13.05
2023-02-19T17:58:36.165Z,13.21
2023-02-19T18:01:03.007Z,13.20
2023-02-19T18:03:30.055Z,13.15
2023-02-19T18:05:56.956Z,13.09
2023-02-19T18:08:23.720Z,13.15
2023-02-19T18:10:50.595Z,13.15
2023-02-19T18:13:17.362Z,13.19
2023-02-19T18:15:44.878Z,13.28
2023-02-19T18:18:12.267Z,13.37
2023-02-19T18:20:39.104Z,13.19
2023-02-19T18:23:06.056Z,13.30
2023-02-19T18:25:32.842Z,13.39
2023-02-19T18:27:59.747Z,13.34
2023-02-19T18:30:28.513Z,13.38
2023-02-19T18:32:55.543Z,13.25
2023-02-19T18:35:22.360Z,13.30
2023-02-19T18:37:53.442Z,13.17
2023-02-19T18:40:22.274Z,13.39
2023-02-19T18:42:49.221Z,13.29
2023-02-19T18:45:16.185Z,13.32
2023-02-19T18:47:46.428Z,13.24
2023-02-19T18:50:13.412Z,13.08
2023-02-19T18:52:40.233Z,13.18
2023-02-19T18:55:07.987Z,13.23
2023-02-19T18:57:34.761Z,13.14
2023-02-19T19:00:01.528Z,13.28
2023-02-19T19:02:33.743Z,13.15
2023-02-19T19:05:06.815Z,13.03
2023-02-19T19:07:33.621Z,13.16
2023-02-19T19:10:00.381Z,13.15
2023-02-19T19:12:27.238Z,13.13
2023-02-19T19:14:54.645Z,13.14
2023-02-19T19:17:21.472Z,13.07
2023-02-19T19:19:48.262Z,13.11
2023-02-19T19:22:16.509Z,13.02
2023-02-19T19:24:43.338Z,13.10
2023-02-19T19:27:10.308Z,13.18
2023-02-19T19:29:37.256Z,12.85
2023-02-19T19:32:08.212Z,13.04
2023-02-19T19:34:35.397Z,12.84
2023-02-19T19:37:02.206Z,12.87
2023-02-19T19:39:28.953Z,12.98
2023-02-19T19:41:56.898Z,12.92
2023-02-19T19:44:24.093Z,13.04
2023-02-19T19:46:50.952Z,13.00
2023-02-19T19:49:21.845Z,12.95
2023-02-19T19:51:49.013Z,12.96
2023-02-19T19:54:15.862Z,12.98
2023-02-19T19:56:45.435Z,12.93
2023-02-19T19:59:16.741Z,13.04
2023-02-19T20:01:51.890Z,13.07
2023-02-19T20:04:21.895Z,13.00
2023-02-19T20:06:48.998Z,12.80
2023-02-19T20:09:17.405Z,12.82
2023-02-19T20:11:50.350Z,12.71
2023-02-19T20:14:19.758Z,12.92
2023-02-19T20:16:47.529Z,12.78
2023-02-19T20:19:18.540Z,12.89
2023-02-19T20:21:50.980Z,12.92
2023-02-19T20:24:24.073Z,12.97
2023-02-19T20:26:53.603Z,12.73
2023-02-19T20:29:20.830Z,12.76
2023-02-19T20:31:49.925Z,12.82
2023-02-19T20:34:17.499Z,12.84
2023-02-19T20:36:46.734Z,12.61
2023-02-19T20:39:15.681Z,12.94
2023-02-19T20:41:50.909Z,12.83
2023-02-19T20:44:18.527Z,12.88
2023-02-19T20:46:48.601Z,12.88
2023-02-19T20:49:18.163Z,12.92
2023-02-19T20:51:51.776Z,12.83
2023-02-19T20:54:21.016Z,12.80
2023-02-19T20:56:50.569Z,12.87
2023-02-19T20:59:18.672Z,12.92
2023-02-19T21:01:45.660Z,12.69
2023-02-19T21:04:13.331Z,12.71
2023-02-19T21:06:40.330Z,12.77
2023-02-19T21:09:07.979Z,12.73
2023-02-19T21:11:34.835Z,12.85
2023-02-19T21:14:01.678Z,12.73
2023-02-19T21:16:31.945Z,12.89
2023-02-19T21:18:59.603Z,12.89
2023-02-19T21:21:26.961Z,12.76
2023-02-19T21:23:57.180Z,12.29
2023-02-19T21:26:25.220Z,12.77
2023-02-19T21:28:52.910Z,12.74
2023-02-19T21:31:25.209Z,12.76
2023-02-19T21:33:52.256Z,12.80
2023-02-19T21:36:19.042Z,12.65
2023-02-19T21:38:46.510Z,12.67
2023-02-19T21:41:13.283Z,12.79
2023-02-19T21:43:40.086Z,12.62
2023-02-19T21:46:06.935Z,12.71
2023-02-19T21:48:33.800Z,12.58
2023-02-19T21:51:00.758Z,12.60
2023-02-19T21:53:27.546Z,12.53
2023-02-19T21:56:10.650Z,12.54
2023-02-19T21:58:37.500Z,12.45
2023-02-19T22:01:04.461Z,12.39
2023-02-19T22:03:31.343Z,12.65
2023-02-19T22:06:02.171Z,12.58
2023-02-19T22:08:28.959Z,12.25
2023-02-19T22:10:55.786Z,12.42
2023-02-19T22:13:22.632Z,12.39
2023-02-19T22:15:49.484Z,12.32
2023-02-19T22:18:16.262Z,12.28
2023-02-19T22:20:43.064Z,12.36
2023-02-19T22:23:09.812Z,12.64
2023-02-19T22:25:36.653Z,12.51
2023-02-19T22:28:04.977Z,12.40
2023-02-19T22:30:31.825Z,12.33
2023-02-19T22:32:58.638Z,12.37
2023-02-19T22:35:25.578Z,12.41
2023-02-19T22:37:52.860Z,12.32
2023-02-19T22:40:19.634Z,12.42
2023-02-19T22:42:46.410Z,12.34
2023-02-19T22:45:14.398Z,12.58
2023-02-19T22:47:41.986Z,12.56
2023-02-19T22:50:15.986Z,11.95
2023-02-19T22:52:42.733Z,12.56
2023-02-19T22:55:09.553Z,12.50
2023-02-19T22:57:36.346Z,12.17
2023-02-19T23:00:08.489Z,12.39
2023-02-19T23:02:35.249Z,12.50
2023-02-19T23:05:02.103Z,12.20
2023-02-19T23:07:28.876Z,12.21
2023-02-19T23:09:55.697Z,12.47
2023-02-19T23:12:23.185Z,12.19
2023-02-19T23:14:50.016Z,12.28
2023-02-19T23:17:16.819Z,12.41
2023-02-19T23:19:43.665Z,12.16
2023-02-19T23:22:10.528Z,12.22
2023-02-19T23:24:37.334Z,11.88
2023-02-19T23:27:04.116Z,12.08
2023-02-19T23:29:31.004Z,12.00
2023-02-19T23:32:00.243Z,12.29
2023-02-19T23:34:27.102Z,12.14
2023-02-19T23:36:55.356Z,12.18
2023-02-19T23:39:22.780Z,12.05
2023-02-19T23:41:55.382Z,12.10
2023-02-19T23:44:24.513Z,12.28
2023-02-19T23:46:52.295Z,12.26
2023-02-19T23:49:19.455Z,12.13
2023-02-19T23:51:46.434Z,12.24
2023-02-19T23:54:13.473Z,12.03
2023-02-19T23:56:40.349Z,12.15
2023-02-19T23:59:07.155Z,12.25
